Terminal Aerodrome Forecast
Issued by NWS Tampa Bay Area, FL

Home | Current Version | Previous Version | Text Only | Print | Product List | Glossary On
Versions: 1 2 3 4 5 6 7 8 9 10 11 12 13 14 15 16 17 18 19 20 21 22 23 24 25 26 27 28 29 30 31 32 33 34 35 36 37 38 39 40 41 42 43 44
000
FTUS42 KTBW 202300
TAFTPA
TAF
KTPA 202340Z 2100/2124 34006KT P6SM SCT030 SCT250
     FM210200 02005KT P6SM BKN025
     FM210700 03004KT P6SM SCT025 BKN250
     FM211400 01008KT P6SM SCT025 SCT250
     FM211700 29008KT P6SM SCT035 SCT250=

USA.gov is the U.S. government's official web portal to all federal, state and local government web resources and services.